Terminal Aerodrome Forecast
Issued by NWS Portland, OR

Home | Current Version | Previous Version | Text Only | Print | Product List | Glossary On
Versions: 1 2 3 4 5 6 7 8 9 10 11 12 13 14 15 16 17 18 19 20 21
000
FTUS46 KPQR 180520
TAFTTD
TAF
KTTD 180520Z 1806/1906 00000KT 4SM BR VCFG FEW001 FEW015 SCT060
      TEMPO 1806/1808 1SM BR SCT001 BKN010
     FM180800 10005KT P6SM SCT015 BKN024
     FM181400 14016G25KT P6SM -RA SCT012 OVC018
     FM182100 22008G17KT P6SM -SHRA SCT020 BKN035
     FM190100 18018G25KT P6SM SCT015 BKN025=

USA.gov is the U.S. government's official web portal to all federal, state and local government web resources and services.